CheckWX is a tool to help pilots better visualize weather data.  It is not intended as a substitute for an official pre-flight weather briefing.

05:43:44 UTC

KMCB TAF
Mc Comb/Pike County Airport/John E Lewis Field
Mc Comb, Mississippi, USA
KMCB 110520Z 1106/1206 VRB03KT P6SM FEW045 FEW110 FM120400 00000KT P6SM FEW250

Jul-11@
06:00 UTC

Jul-11 @ 06:00 UTC

Jul-12@
04:00 UTC

Jul-12 @ 04:00 UTC

TAF KMCB 110520Z 1106/1206 VRB03KT P6SM FEW045 FEW110

Expired

Wind
  • Variable at 3 KTS
Cloud Levels
  • Few at 4,500' AGL
  • Few at 11,000' AGL

Jul-12@
04:00 UTC

Jul-12 @ 04:00 UTC

Jul-12@
06:00 UTC

Jul-12 @ 06:00 UTC

FM120400 00000KT P6SM FEW250

From

From Standard forecast or significant change

Cloud Levels
  • Few at 25,000' AGL